sensor_id;sensor_type;location;lat;lon;timestamp;P1;durP1;ratioP1;P2;durP2;ratioP2
25153;SDS011;47555;51.038;6.280;2022-07-29T00:01:35;2.30;;;1.42;;
25153;SDS011;47555;51.038;6.280;2022-07-29T00:04:00;3.00;;;1.45;;
25153;SDS011;47555;51.038;6.280;2022-07-29T00:06:26;2.97;;;1.70;;
25153;SDS011;47555;51.038;6.280;2022-07-29T00:08:51;2.45;;;1.40;;
25153;SDS011;47555;51.038;6.280;2022-07-29T00:11:17;2.70;;;1.50;;
25153;SDS011;47555;51.038;6.280;2022-07-29T00:13:43;2.72;;;1.40;;
25153;SDS011;47555;51.038;6.280;2022-07-29T00:16:08;3.03;;;1.67;;
25153;SDS011;47555;51.038;6.280;2022-07-29T00:18:34;3.28;;;1.50;;
25153;SDS011;47555;51.038;6.280;2022-07-29T00:20:59;4.60;;;1.65;;
25153;SDS011;47555;51.038;6.280;2022-07-29T00:23:25;3.13;;;1.42;;
25153;SDS011;47555;51.038;6.280;2022-07-29T00:25:51;3.85;;;1.75;;
25153;SDS011;47555;51.038;6.280;2022-07-29T00:28:16;3.67;;;1.50;;
25153;SDS011;47555;51.038;6.280;2022-07-29T00:30:42;2.20;;;1.48;;
25153;SDS011;47555;51.038;6.280;2022-07-29T00:33:08;2.17;;;1.52;;
25153;SDS011;47555;51.038;6.280;2022-07-29T00:35:34;2.13;;;1.52;;
25153;SDS011;47555;51.038;6.280;2022-07-29T00:38:10;3.00;;;1.45;;
25153;SDS011;47555;51.038;6.280;2022-07-29T00:40:39;2.95;;;1.42;;
25153;SDS011;47555;51.038;6.280;2022-07-29T00:43:06;4.00;;;1.83;;
25153;SDS011;47555;51.038;6.280;2022-07-29T00:45:32;2.85;;;1.30;;
25153;SDS011;47555;51.038;6.280;2022-07-29T00:47:58;3.95;;;1.63;;
25153;SDS011;47555;51.038;6.280;2022-07-29T00:50:24;4.18;;;1.60;;
25153;SDS011;47555;51.038;6.280;2022-07-29T00:52:50;2.83;;;1.33;;
25153;SDS011;47555;51.038;6.280;2022-07-29T00:55:16;5.88;;;1.52;;
25153;SDS011;47555;51.038;6.280;2022-07-29T00:57:42;3.08;;;1.52;;
25153;SDS011;47555;51.038;6.280;2022-07-29T01:00:10;2.92;;;1.50;;
25153;SDS011;47555;51.038;6.280;2022-07-29T01:02:42;3.28;;;1.60;;
25153;SDS011;47555;51.038;6.280;2022-07-29T01:05:08;3.70;;;1.77;;
25153;SDS011;47555;51.038;6.280;2022-07-29T01:07:35;4.05;;;1.60;;
25153;SDS011;47555;51.038;6.280;2022-07-29T01:10:04;3.17;;;1.58;;
25153;SDS011;47555;51.038;6.280;2022-07-29T01:12:32;4.38;;;1.80;;
25153;SDS011;47555;51.038;6.280;2022-07-29T01:15:01;3.17;;;1.50;;
25153;SDS011;47555;51.038;6.280;2022-07-29T01:17:30;2.38;;;1.70;;
25153;SDS011;47555;51.038;6.280;2022-07-29T01:20:15;3.45;;;1.67;;
25153;SDS011;47555;51.038;6.280;2022-07-29T01:28:40;2.63;;;1.90;;
25153;SDS011;47555;51.038;6.280;2022-07-29T01:31:28;5.82;;;2.00;;
25153;SDS011;47555;51.038;6.280;2022-07-29T01:34:15;2.45;;;1.55;;
25153;SDS011;47555;51.038;6.280;2022-07-29T01:36:51;3.40;;;1.60;;
25153;SDS011;47555;51.038;6.280;2022-07-29T01:39:31;5.32;;;1.70;;
25153;SDS011;47555;51.038;6.280;2022-07-29T01:42:08;3.95;;;2.25;;
25153;SDS011;47555;51.038;6.280;2022-07-29T01:44:48;2.65;;;1.80;;
25153;SDS011;47555;51.038;6.280;2022-07-29T01:47:21;3.10;;;1.57;;
25153;SDS011;47555;51.038;6.280;2022-07-29T01:49:51;3.95;;;2.13;;
25153;SDS011;47555;51.038;6.280;2022-07-29T01:52:31;3.00;;;1.83;;
25153;SDS011;47555;51.038;6.280;2022-07-29T01:55:02;3.42;;;1.77;;
25153;SDS011;47555;51.038;6.280;2022-07-29T01:57:33;4.72;;;1.75;;
25153;SDS011;47555;51.038;6.280;2022-07-29T02:00:01;3.47;;;1.90;;
25153;SDS011;47555;51.038;6.280;2022-07-29T02:02:28;3.75;;;1.70;;
25153;SDS011;47555;51.038;6.280;2022-07-29T02:04:56;2.35;;;1.50;;
25153;SDS011;47555;51.038;6.280;2022-07-29T02:07:24;2.63;;;1.70;;
25153;SDS011;47555;51.038;6.280;2022-07-29T02:09:53;3.97;;;1.70;;
25153;SDS011;47555;51.038;6.280;2022-07-29T02:12:20;3.75;;;1.60;;
25153;SDS011;47555;51.038;6.280;2022-07-29T02:14:49;3.13;;;1.50;;
25153;SDS011;47555;51.038;6.280;2022-07-29T02:17:20;5.75;;;1.83;;
25153;SDS011;47555;51.038;6.280;2022-07-29T02:19:51;4.30;;;1.75;;
25153;SDS011;47555;51.038;6.280;2022-07-29T02:22:20;3.97;;;1.60;;
25153;SDS011;47555;51.038;6.280;2022-07-29T02:24:47;4.03;;;1.75;;
25153;SDS011;47555;51.038;6.280;2022-07-29T02:27:16;4.13;;;1.92;;
25153;SDS011;47555;51.038;6.280;2022-07-29T02:29:45;2.13;;;1.70;;
25153;SDS011;47555;51.038;6.280;2022-07-29T02:32:12;3.53;;;1.60;;
25153;SDS011;47555;51.038;6.280;2022-07-29T02:34:39;5.32;;;2.00;;
25153;SDS011;47555;51.038;6.280;2022-07-29T02:37:08;4.65;;;1.67;;
25153;SDS011;47555;51.038;6.280;2022-07-29T02:39:34;2.50;;;1.75;;
25153;SDS011;47555;51.038;6.280;2022-07-29T02:42:02;2.88;;;1.65;;
25153;SDS011;47555;51.038;6.280;2022-07-29T02:44:32;3.67;;;1.65;;
25153;SDS011;47555;51.038;6.280;2022-07-29T02:55:32;5.03;;;2.10;;
25153;SDS011;47555;51.038;6.280;2022-07-29T03:00:43;5.33;;;2.07;;
25153;SDS011;47555;51.038;6.280;2022-07-29T03:03:12;4.55;;;2.15;;
25153;SDS011;47555;51.038;6.280;2022-07-29T03:05:39;6.78;;;2.75;;
25153;SDS011;47555;51.038;6.280;2022-07-29T03:08:06;3.10;;;2.38;;
25153;SDS011;47555;51.038;6.280;2022-07-29T03:10:35;3.33;;;2.40;;
25153;SDS011;47555;51.038;6.280;2022-07-29T03:13:03;4.25;;;2.22;;
25153;SDS011;47555;51.038;6.280;2022-07-29T03:15:29;4.07;;;1.92;;
25153;SDS011;47555;51.038;6.280;2022-07-29T03:17:55;3.20;;;2.20;;
25153;SDS011;47555;51.038;6.280;2022-07-29T03:20:22;5.18;;;2.30;;
25153;SDS011;47555;51.038;6.280;2022-07-29T03:22:48;3.05;;;2.22;;
25153;SDS011;47555;51.038;6.280;2022-07-29T03:25:15;3.38;;;2.25;;
25153;SDS011;47555;51.038;6.280;2022-07-29T03:27:41;2.60;;;2.40;;
25153;SDS011;47555;51.038;6.280;2022-07-29T03:30:07;3.67;;;2.58;;
25153;SDS011;47555;51.038;6.280;2022-07-29T03:32:34;3.10;;;2.35;;
25153;SDS011;47555;51.038;6.280;2022-07-29T03:35:00;2.72;;;2.33;;
25153;SDS011;47555;51.038;6.280;2022-07-29T03:37:26;4.50;;;2.60;;
25153;SDS011;47555;51.038;6.280;2022-07-29T03:39:52;4.47;;;2.83;;
25153;SDS011;47555;51.038;6.280;2022-07-29T03:42:20;5.05;;;2.55;;
25153;SDS011;47555;51.038;6.280;2022-07-29T03:44:49;5.40;;;2.45;;
25153;SDS011;47555;51.038;6.280;2022-07-29T03:47:17;4.28;;;2.58;;
25153;SDS011;47555;51.038;6.280;2022-07-29T03:49:47;5.55;;;2.70;;
25153;SDS011;47555;51.038;6.280;2022-07-29T03:52:15;3.80;;;2.55;;
25153;SDS011;47555;51.038;6.280;2022-07-29T03:54:41;4.47;;;2.53;;
25153;SDS011;47555;51.038;6.280;2022-07-29T03:57:07;5.95;;;2.90;;
25153;SDS011;47555;51.038;6.280;2022-07-29T03:59:36;4.00;;;2.55;;
25153;SDS011;47555;51.038;6.280;2022-07-29T04:02:03;3.55;;;2.40;;
25153;SDS011;47555;51.038;6.280;2022-07-29T04:04:33;5.10;;;2.50;;
25153;SDS011;47555;51.038;6.280;2022-07-29T04:06:59;4.65;;;2.63;;
25153;SDS011;47555;51.038;6.280;2022-07-29T04:09:25;4.43;;;2.90;;
25153;SDS011;47555;51.038;6.280;2022-07-29T04:11:51;3.35;;;2.88;;
25153;SDS011;47555;51.038;6.280;2022-07-29T04:14:17;4.05;;;2.67;;
25153;SDS011;47555;51.038;6.280;2022-07-29T04:16:43;4.57;;;3.08;;
25153;SDS011;47555;51.038;6.280;2022-07-29T04:19:09;5.10;;;2.92;;
25153;SDS011;47555;51.038;6.280;2022-07-29T04:21:38;4.45;;;3.03;;
25153;SDS011;47555;51.038;6.280;2022-07-29T04:24:04;4.25;;;3.05;;
25153;SDS011;47555;51.038;6.280;2022-07-29T04:26:30;6.78;;;3.35;;
25153;SDS011;47555;51.038;6.280;2022-07-29T04:28:55;3.90;;;3.15;;
25153;SDS011;47555;51.038;6.280;2022-07-29T04:31:21;7.25;;;3.47;;
25153;SDS011;47555;51.038;6.280;2022-07-29T04:33:46;4.97;;;3.63;;
25153;SDS011;47555;51.038;6.280;2022-07-29T04:36:12;10.85;;;4.75;;
25153;SDS011;47555;51.038;6.280;2022-07-29T04:38:38;6.15;;;3.30;;
25153;SDS011;47555;51.038;6.280;2022-07-29T04:41:03;4.95;;;3.17;;
25153;SDS011;47555;51.038;6.280;2022-07-29T04:43:31;5.80;;;3.13;;
25153;SDS011;47555;51.038;6.280;2022-07-29T04:45:57;6.05;;;3.40;;
25153;SDS011;47555;51.038;6.280;2022-07-29T04:48:22;9.20;;;4.05;;
25153;SDS011;47555;51.038;6.280;2022-07-29T04:50:48;4.00;;;3.08;;
25153;SDS011;47555;51.038;6.280;2022-07-29T04:53:13;6.55;;;3.45;;
25153;SDS011;47555;51.038;6.280;2022-07-29T04:55:39;4.47;;;3.28;;
25153;SDS011;47555;51.038;6.280;2022-07-29T04:58:04;4.43;;;3.08;;
25153;SDS011;47555;51.038;6.280;2022-07-29T05:00:30;6.18;;;3.70;;
25153;SDS011;47555;51.038;6.280;2022-07-29T05:02:55;5.63;;;4.38;;
25153;SDS011;47555;51.038;6.280;2022-07-29T05:05:21;4.68;;;3.55;;
25153;SDS011;47555;51.038;6.280;2022-07-29T05:07:46;7.93;;;3.60;;
25153;SDS011;47555;51.038;6.280;2022-07-29T05:10:12;4.43;;;3.78;;
25153;SDS011;47555;51.038;6.280;2022-07-29T05:12:38;6.68;;;3.83;;
25153;SDS011;47555;51.038;6.280;2022-07-29T05:15:03;9.93;;;4.20;;
25153;SDS011;47555;51.038;6.280;2022-07-29T05:17:29;3.90;;;3.08;;
25153;SDS011;47555;51.038;6.280;2022-07-29T05:19:55;5.22;;;3.25;;
25153;SDS011;47555;51.038;6.280;2022-07-29T05:22:20;4.18;;;3.53;;
25153;SDS011;47555;51.038;6.280;2022-07-29T05:24:46;10.68;;;4.50;;
25153;SDS011;47555;51.038;6.280;2022-07-29T05:27:12;6.88;;;3.88;;
25153;SDS011;47555;51.038;6.280;2022-07-29T05:29:37;8.75;;;3.55;;
25153;SDS011;47555;51.038;6.280;2022-07-29T05:32:03;5.22;;;3.30;;
25153;SDS011;47555;51.038;6.280;2022-07-29T05:34:29;9.68;;;4.70;;
25153;SDS011;47555;51.038;6.280;2022-07-29T05:36:55;7.00;;;4.40;;
25153;SDS011;47555;51.038;6.280;2022-07-29T05:39:21;7.53;;;4.50;;
25153;SDS011;47555;51.038;6.280;2022-07-29T05:41:47;10.55;;;4.63;;
25153;SDS011;47555;51.038;6.280;2022-07-29T05:44:13;6.90;;;4.15;;
25153;SDS011;47555;51.038;6.280;2022-07-29T05:46:38;4.97;;;3.45;;
25153;SDS011;47555;51.038;6.280;2022-07-29T05:49:04;4.70;;;3.40;;
25153;SDS011;47555;51.038;6.280;2022-07-29T05:51:31;5.57;;;3.60;;
25153;SDS011;47555;51.038;6.280;2022-07-29T05:53:58;4.68;;;3.53;;
25153;SDS011;47555;51.038;6.280;2022-07-29T05:56:24;5.93;;;3.58;;
25153;SDS011;47555;51.038;6.280;2022-07-29T05:58:50;5.05;;;3.47;;
25153;SDS011;47555;51.038;6.280;2022-07-29T06:01:15;5.63;;;3.35;;
25153;SDS011;47555;51.038;6.280;2022-07-29T06:03:41;5.43;;;3.55;;
25153;SDS011;47555;51.038;6.280;2022-07-29T06:06:06;6.28;;;3.42;;
25153;SDS011;47555;51.038;6.280;2022-07-29T06:08:32;5.15;;;3.15;;
25153;SDS011;47555;51.038;6.280;2022-07-29T06:10:59;4.20;;;3.28;;
25153;SDS011;47555;51.038;6.280;2022-07-29T06:13:25;6.35;;;3.67;;
25153;SDS011;47555;51.038;6.280;2022-07-29T06:15:50;5.70;;;3.05;;
25153;SDS011;47555;51.038;6.280;2022-07-29T06:18:16;4.05;;;2.80;;
25153;SDS011;47555;51.038;6.280;2022-07-29T06:20:41;6.38;;;3.38;;
25153;SDS011;47555;51.038;6.280;2022-07-29T06:23:07;5.20;;;3.50;;
25153;SDS011;47555;51.038;6.280;2022-07-29T06:25:34;5.75;;;3.22;;
25153;SDS011;47555;51.038;6.280;2022-07-29T06:28:01;4.28;;;3.60;;
25153;SDS011;47555;51.038;6.280;2022-07-29T06:30:27;6.45;;;3.70;;
25153;SDS011;47555;51.038;6.280;2022-07-29T06:32:53;5.68;;;3.65;;
25153;SDS011;47555;51.038;6.280;2022-07-29T06:35:19;6.50;;;3.47;;
25153;SDS011;47555;51.038;6.280;2022-07-29T06:37:45;4.97;;;3.80;;
25153;SDS011;47555;51.038;6.280;2022-07-29T06:40:10;5.20;;;3.60;;
25153;SDS011;47555;51.038;6.280;2022-07-29T06:42:54;8.45;;;4.13;;
25153;SDS011;47555;51.038;6.280;2022-07-29T06:45:20;4.10;;;3.60;;
25153;SDS011;47555;51.038;6.280;2022-07-29T06:47:46;7.93;;;4.25;;
25153;SDS011;47555;51.038;6.280;2022-07-29T06:50:11;6.72;;;4.07;;
25153;SDS011;47555;51.038;6.280;2022-07-29T06:52:37;6.38;;;3.90;;
25153;SDS011;47555;51.038;6.280;2022-07-29T06:55:04;7.68;;;3.97;;
25153;SDS011;47555;51.038;6.280;2022-07-29T06:57:30;5.75;;;4.00;;
25153;SDS011;47555;51.038;6.280;2022-07-29T06:59:58;6.28;;;4.63;;
25153;SDS011;47555;51.038;6.280;2022-07-29T07:02:24;8.23;;;4.15;;
25153;SDS011;47555;51.038;6.280;2022-07-29T07:04:49;6.45;;;3.90;;
25153;SDS011;47555;51.038;6.280;2022-07-29T07:07:15;7.03;;;4.03;;
25153;SDS011;47555;51.038;6.280;2022-07-29T07:09:40;6.50;;;4.15;;
25153;SDS011;47555;51.038;6.280;2022-07-29T07:12:06;8.27;;;4.55;;
25153;SDS011;47555;51.038;6.280;2022-07-29T07:14:32;6.22;;;4.10;;
25153;SDS011;47555;51.038;6.280;2022-07-29T07:16:57;6.40;;;3.67;;
25153;SDS011;47555;51.038;6.280;2022-07-29T07:19:25;8.02;;;4.05;;
25153;SDS011;47555;51.038;6.280;2022-07-29T07:21:51;5.05;;;4.15;;
25153;SDS011;47555;51.038;6.280;2022-07-29T07:24:18;7.28;;;3.90;;
25153;SDS011;47555;51.038;6.280;2022-07-29T07:26:43;7.70;;;3.97;;
25153;SDS011;47555;51.038;6.280;2022-07-29T07:29:09;6.97;;;4.28;;
25153;SDS011;47555;51.038;6.280;2022-07-29T07:31:35;8.70;;;4.20;;
25153;SDS011;47555;51.038;6.280;2022-07-29T07:34:01;9.63;;;4.65;;
25153;SDS011;47555;51.038;6.280;2022-07-29T07:36:27;7.55;;;4.03;;
25153;SDS011;47555;51.038;6.280;2022-07-29T07:38:52;6.18;;;4.10;;
25153;SDS011;47555;51.038;6.280;2022-07-29T07:41:18;5.60;;;3.88;;
25153;SDS011;47555;51.038;6.280;2022-07-29T07:43:43;6.22;;;3.97;;
25153;SDS011;47555;51.038;6.280;2022-07-29T07:46:09;6.97;;;3.65;;
25153;SDS011;47555;51.038;6.280;2022-07-29T07:48:34;5.57;;;3.85;;
25153;SDS011;47555;51.038;6.280;2022-07-29T07:51:00;7.15;;;4.20;;
25153;SDS011;47555;51.038;6.280;2022-07-29T07:53:26;8.95;;;4.38;;
25153;SDS011;47555;51.038;6.280;2022-07-29T07:55:52;9.50;;;4.18;;
25153;SDS011;47555;51.038;6.280;2022-07-29T07:58:18;6.88;;;4.38;;
25153;SDS011;47555;51.038;6.280;2022-07-29T08:00:43;6.90;;;3.90;;
25153;SDS011;47555;51.038;6.280;2022-07-29T08:03:09;4.55;;;3.70;;
25153;SDS011;47555;51.038;6.280;2022-07-29T08:05:37;7.65;;;4.05;;
25153;SDS011;47555;51.038;6.280;2022-07-29T08:08:03;6.82;;;3.67;;
25153;SDS011;47555;51.038;6.280;2022-07-29T08:10:29;6.00;;;4.53;;
25153;SDS011;47555;51.038;6.280;2022-07-29T08:13:13;5.70;;;4.20;;
25153;SDS011;47555;51.038;6.280;2022-07-29T08:15:39;5.18;;;3.90;;
25153;SDS011;47555;51.038;6.280;2022-07-29T08:18:06;7.03;;;3.97;;
25153;SDS011;47555;51.038;6.280;2022-07-29T08:20:32;8.43;;;4.00;;
25153;SDS011;47555;51.038;6.280;2022-07-29T08:23:00;8.32;;;3.63;;
25153;SDS011;47555;51.038;6.280;2022-07-29T08:25:26;6.50;;;4.28;;
25153;SDS011;47555;51.038;6.280;2022-07-29T08:27:52;8.55;;;4.40;;
25153;SDS011;47555;51.038;6.280;2022-07-29T08:30:18;5.30;;;3.75;;
25153;SDS011;47555;51.038;6.280;2022-07-29T08:32:43;6.97;;;3.80;;
25153;SDS011;47555;51.038;6.280;2022-07-29T08:35:09;5.35;;;3.90;;
25153;SDS011;47555;51.038;6.280;2022-07-29T08:37:35;7.13;;;4.30;;
25153;SDS011;47555;51.038;6.280;2022-07-29T08:40:00;6.43;;;3.80;;
25153;SDS011;47555;51.038;6.280;2022-07-29T08:42:26;6.55;;;3.78;;
25153;SDS011;47555;51.038;6.280;2022-07-29T08:44:51;5.28;;;3.90;;
25153;SDS011;47555;51.038;6.280;2022-07-29T08:47:18;5.30;;;3.63;;
25153;SDS011;47555;51.038;6.280;2022-07-29T08:49:44;6.65;;;3.50;;
25153;SDS011;47555;51.038;6.280;2022-07-29T08:52:12;7.65;;;3.60;;
25153;SDS011;47555;51.038;6.280;2022-07-29T08:54:39;5.88;;;3.17;;
25153;SDS011;47555;51.038;6.280;2022-07-29T08:57:05;7.70;;;3.78;;
25153;SDS011;47555;51.038;6.280;2022-07-29T08:59:31;6.05;;;3.35;;
25153;SDS011;47555;51.038;6.280;2022-07-29T09:01:58;7.18;;;3.58;;
25153;SDS011;47555;51.038;6.280;2022-07-29T09:04:27;5.93;;;3.67;;
25153;SDS011;47555;51.038;6.280;2022-07-29T09:06:59;4.90;;;3.35;;
25153;SDS011;47555;51.038;6.280;2022-07-29T09:09:28;5.63;;;3.35;;
25153;SDS011;47555;51.038;6.280;2022-07-29T09:11:54;3.58;;;3.17;;
25153;SDS011;47555;51.038;6.280;2022-07-29T09:14:20;6.40;;;3.38;;
25153;SDS011;47555;51.038;6.280;2022-07-29T09:16:46;5.05;;;3.35;;
25153;SDS011;47555;51.038;6.280;2022-07-29T09:19:28;5.78;;;3.35;;
25153;SDS011;47555;51.038;6.280;2022-07-29T09:21:55;6.15;;;3.30;;
25153;SDS011;47555;51.038;6.280;2022-07-29T09:24:22;6.22;;;3.10;;
25153;SDS011;47555;51.038;6.280;2022-07-29T09:26:48;7.20;;;3.33;;
25153;SDS011;47555;51.038;6.280;2022-07-29T09:31:44;6.93;;;4.25;;
25153;SDS011;47555;51.038;6.280;2022-07-29T09:34:13;6.53;;;3.20;;
25153;SDS011;47555;51.038;6.280;2022-07-29T09:36:41;5.40;;;3.38;;
25153;SDS011;47555;51.038;6.280;2022-07-29T09:39:09;5.43;;;2.85;;
25153;SDS011;47555;51.038;6.280;2022-07-29T09:41:49;3.83;;;2.60;;
25153;SDS011;47555;51.038;6.280;2022-07-29T09:44:20;4.78;;;2.65;;
25153;SDS011;47555;51.038;6.280;2022-07-29T09:49:30;3.67;;;2.80;;
25153;SDS011;47555;51.038;6.280;2022-07-29T09:52:03;5.30;;;2.80;;
25153;SDS011;47555;51.038;6.280;2022-07-29T09:54:30;4.47;;;2.78;;
25153;SDS011;47555;51.038;6.280;2022-07-29T09:57:01;4.13;;;2.78;;
25153;SDS011;47555;51.038;6.280;2022-07-29T09:59:55;4.38;;;2.70;;
25153;SDS011;47555;51.038;6.280;2022-07-29T10:02:41;3.85;;;2.65;;
25153;SDS011;47555;51.038;6.280;2022-07-29T10:05:22;4.20;;;3.08;;
25153;SDS011;47555;51.038;6.280;2022-07-29T10:07:50;6.22;;;3.10;;
25153;SDS011;47555;51.038;6.280;2022-07-29T10:10:21;7.53;;;3.13;;
25153;SDS011;47555;51.038;6.280;2022-07-29T10:12:55;5.90;;;3.53;;
25153;SDS011;47555;51.038;6.280;2022-07-29T10:15:24;5.63;;;3.25;;
25153;SDS011;47555;51.038;6.280;2022-07-29T10:17:52;5.22;;;3.22;;
25153;SDS011;47555;51.038;6.280;2022-07-29T10:20:18;6.03;;;3.17;;
25153;SDS011;47555;51.038;6.280;2022-07-29T10:22:45;5.50;;;2.90;;
25153;SDS011;47555;51.038;6.280;2022-07-29T10:25:12;7.25;;;3.33;;
25153;SDS011;47555;51.038;6.280;2022-07-29T10:27:39;5.88;;;3.60;;
25153;SDS011;47555;51.038;6.280;2022-07-29T10:30:05;5.97;;;3.40;;
25153;SDS011;47555;51.038;6.280;2022-07-29T10:35:32;5.38;;;3.75;;
25153;SDS011;47555;51.038;6.280;2022-07-29T10:38:29;7.22;;;3.60;;
25153;SDS011;47555;51.038;6.280;2022-07-29T10:41:24;6.38;;;3.33;;
25153;SDS011;47555;51.038;6.280;2022-07-29T10:44:15;7.15;;;3.33;;
25153;SDS011;47555;51.038;6.280;2022-07-29T10:46:43;6.15;;;3.40;;
25153;SDS011;47555;51.038;6.280;2022-07-29T10:57:14;5.93;;;4.05;;
25153;SDS011;47555;51.038;6.280;2022-07-29T10:59:51;6.00;;;3.60;;
25153;SDS011;47555;51.038;6.280;2022-07-29T11:07:23;7.05;;;3.92;;
25153;SDS011;47555;51.038;6.280;2022-07-29T11:15:02;5.95;;;3.40;;
25153;SDS011;47555;51.038;6.280;2022-07-29T11:28:48;6.80;;;4.07;;
25153;SDS011;47555;51.038;6.280;2022-07-29T11:31:15;5.50;;;3.60;;
25153;SDS011;47555;51.038;6.280;2022-07-29T11:33:44;4.72;;;3.75;;
25153;SDS011;47555;51.038;6.280;2022-07-29T11:36:14;4.95;;;3.65;;
25153;SDS011;47555;51.038;6.280;2022-07-29T11:38:40;4.88;;;3.58;;
25153;SDS011;47555;51.038;6.280;2022-07-29T11:41:24;5.85;;;3.85;;
25153;SDS011;47555;51.038;6.280;2022-07-29T11:43:52;5.28;;;3.60;;
25153;SDS011;47555;51.038;6.280;2022-07-29T11:49:21;4.63;;;3.17;;
25153;SDS011;47555;51.038;6.280;2022-07-29T11:51:55;5.70;;;3.05;;
25153;SDS011;47555;51.038;6.280;2022-07-29T11:54:41;7.07;;;3.63;;
25153;SDS011;47555;51.038;6.280;2022-07-29T11:57:07;5.72;;;3.78;;
25153;SDS011;47555;51.038;6.280;2022-07-29T11:59:38;6.20;;;3.03;;
25153;SDS011;47555;51.038;6.280;2022-07-29T12:02:06;6.60;;;3.45;;
25153;SDS011;47555;51.038;6.280;2022-07-29T12:04:32;6.07;;;3.30;;
25153;SDS011;47555;51.038;6.280;2022-07-29T12:06:59;5.20;;;3.25;;
25153;SDS011;47555;51.038;6.280;2022-07-29T12:09:25;4.30;;;3.30;;
25153;SDS011;47555;51.038;6.280;2022-07-29T12:11:56;5.90;;;3.70;;
25153;SDS011;47555;51.038;6.280;2022-07-29T12:16:51;6.22;;;3.30;;
25153;SDS011;47555;51.038;6.280;2022-07-29T12:19:16;4.95;;;3.05;;
25153;SDS011;47555;51.038;6.280;2022-07-29T12:21:52;5.20;;;3.28;;
25153;SDS011;47555;51.038;6.280;2022-07-29T12:24:19;5.63;;;3.20;;
25153;SDS011;47555;51.038;6.280;2022-07-29T12:26:49;4.30;;;3.30;;
25153;SDS011;47555;51.038;6.280;2022-07-29T12:29:22;5.30;;;3.40;;
25153;SDS011;47555;51.038;6.280;2022-07-29T12:31:51;6.32;;;3.88;;
25153;SDS011;47555;51.038;6.280;2022-07-29T12:34:19;4.32;;;2.80;;
25153;SDS011;47555;51.038;6.280;2022-07-29T12:36:47;4.35;;;3.00;;
25153;SDS011;47555;51.038;6.280;2022-07-29T12:39:14;3.55;;;3.00;;
25153;SDS011;47555;51.038;6.280;2022-07-29T12:41:42;3.25;;;2.72;;
25153;SDS011;47555;51.038;6.280;2022-07-29T12:44:08;4.75;;;3.08;;
25153;SDS011;47555;51.038;6.280;2022-07-29T12:46:34;5.25;;;3.20;;
25153;SDS011;47555;51.038;6.280;2022-07-29T12:49:00;4.68;;;3.10;;
25153;SDS011;47555;51.038;6.280;2022-07-29T12:51:29;3.17;;;2.88;;
25153;SDS011;47555;51.038;6.280;2022-07-29T12:54:29;4.55;;;3.35;;
25153;SDS011;47555;51.038;6.280;2022-07-29T12:56:57;3.75;;;2.50;;
25153;SDS011;47555;51.038;6.280;2022-07-29T12:59:23;3.83;;;2.53;;
25153;SDS011;47555;51.038;6.280;2022-07-29T13:01:50;4.25;;;2.45;;
25153;SDS011;47555;51.038;6.280;2022-07-29T13:04:29;2.88;;;2.58;;
25153;SDS011;47555;51.038;6.280;2022-07-29T13:07:03;7.22;;;3.10;;
25153;SDS011;47555;51.038;6.280;2022-07-29T13:12:07;4.38;;;2.78;;
25153;SDS011;47555;51.038;6.280;2022-07-29T13:19:42;3.67;;;2.65;;
25153;SDS011;47555;51.038;6.280;2022-07-29T13:22:11;3.80;;;2.42;;
25153;SDS011;47555;51.038;6.280;2022-07-29T13:24:45;3.63;;;2.80;;
25153;SDS011;47555;51.038;6.280;2022-07-29T13:27:18;3.70;;;2.80;;
25153;SDS011;47555;51.038;6.280;2022-07-29T13:29:45;2.70;;;2.35;;
25153;SDS011;47555;51.038;6.280;2022-07-29T13:32:11;3.90;;;2.53;;
25153;SDS011;47555;51.038;6.280;2022-07-29T13:34:38;3.75;;;2.72;;
25153;SDS011;47555;51.038;6.280;2022-07-29T13:37:03;3.13;;;2.20;;
25153;SDS011;47555;51.038;6.280;2022-07-29T13:39:29;2.67;;;2.38;;
25153;SDS011;47555;51.038;6.280;2022-07-29T13:41:55;2.83;;;2.40;;
25153;SDS011;47555;51.038;6.280;2022-07-29T13:44:21;3.28;;;2.38;;
25153;SDS011;47555;51.038;6.280;2022-07-29T13:46:46;4.22;;;2.50;;
25153;SDS011;47555;51.038;6.280;2022-07-29T13:49:12;4.28;;;2.30;;
25153;SDS011;47555;51.038;6.280;2022-07-29T13:51:37;5.10;;;2.40;;
25153;SDS011;47555;51.038;6.280;2022-07-29T13:54:03;4.53;;;2.40;;
25153;SDS011;47555;51.038;6.280;2022-07-29T13:56:29;4.25;;;2.30;;
25153;SDS011;47555;51.038;6.280;2022-07-29T13:58:54;3.22;;;2.35;;
25153;SDS011;47555;51.038;6.280;2022-07-29T14:01:20;2.42;;;2.20;;
25153;SDS011;47555;51.038;6.280;2022-07-29T14:03:46;3.30;;;2.38;;
25153;SDS011;47555;51.038;6.280;2022-07-29T14:06:11;3.03;;;2.13;;
25153;SDS011;47555;51.038;6.280;2022-07-29T14:08:38;2.50;;;2.05;;
25153;SDS011;47555;51.038;6.280;2022-07-29T14:11:03;3.85;;;2.38;;
25153;SDS011;47555;51.038;6.280;2022-07-29T14:13:29;2.88;;;2.65;;
25153;SDS011;47555;51.038;6.280;2022-07-29T14:15:54;3.22;;;2.33;;
25153;SDS011;47555;51.038;6.280;2022-07-29T14:18:20;2.60;;;2.40;;
25153;SDS011;47555;51.038;6.280;2022-07-29T14:20:45;2.40;;;2.20;;
25153;SDS011;47555;51.038;6.280;2022-07-29T14:23:11;2.50;;;2.00;;
25153;SDS011;47555;51.038;6.280;2022-07-29T14:25:37;2.78;;;2.33;;
25153;SDS011;47555;51.038;6.280;2022-07-29T14:28:02;2.90;;;2.17;;
25153;SDS011;47555;51.038;6.280;2022-07-29T14:30:28;2.67;;;2.47;;
25153;SDS011;47555;51.038;6.280;2022-07-29T14:32:53;4.43;;;2.47;;
25153;SDS011;47555;51.038;6.280;2022-07-29T14:35:19;2.90;;;2.55;;
25153;SDS011;47555;51.038;6.280;2022-07-29T14:37:44;2.97;;;2.38;;
25153;SDS011;47555;51.038;6.280;2022-07-29T14:40:10;2.78;;;2.58;;
25153;SDS011;47555;51.038;6.280;2022-07-29T14:42:36;5.10;;;2.67;;
25153;SDS011;47555;51.038;6.280;2022-07-29T14:45:04;2.70;;;2.50;;
25153;SDS011;47555;51.038;6.280;2022-07-29T14:47:30;5.20;;;2.80;;
25153;SDS011;47555;51.038;6.280;2022-07-29T14:49:56;3.20;;;2.40;;
25153;SDS011;47555;51.038;6.280;2022-07-29T14:52:21;4.10;;;2.60;;
25153;SDS011;47555;51.038;6.280;2022-07-29T14:54:47;2.97;;;2.47;;
25153;SDS011;47555;51.038;6.280;2022-07-29T14:57:12;2.70;;;2.50;;
25153;SDS011;47555;51.038;6.280;2022-07-29T14:59:38;3.22;;;2.58;;
25153;SDS011;47555;51.038;6.280;2022-07-29T15:02:03;4.60;;;2.70;;
25153;SDS011;47555;51.038;6.280;2022-07-29T15:04:29;3.17;;;2.85;;
25153;SDS011;47555;51.038;6.280;2022-07-29T15:06:55;2.85;;;2.63;;
25153;SDS011;47555;51.038;6.280;2022-07-29T15:09:21;2.90;;;2.60;;
25153;SDS011;47555;51.038;6.280;2022-07-29T15:11:46;3.85;;;2.33;;
25153;SDS011;47555;51.038;6.280;2022-07-29T15:14:12;3.53;;;2.55;;
25153;SDS011;47555;51.038;6.280;2022-07-29T15:16:38;3.00;;;2.67;;
25153;SDS011;47555;51.038;6.280;2022-07-29T15:19:05;2.95;;;2.65;;
25153;SDS011;47555;51.038;6.280;2022-07-29T15:21:30;5.18;;;2.70;;
25153;SDS011;47555;51.038;6.280;2022-07-29T15:23:56;4.05;;;2.90;;
25153;SDS011;47555;51.038;6.280;2022-07-29T15:26:22;3.40;;;3.10;;
25153;SDS011;47555;51.038;6.280;2022-07-29T15:28:47;3.92;;;3.30;;
25153;SDS011;47555;51.038;6.280;2022-07-29T15:31:13;3.58;;;2.67;;
25153;SDS011;47555;51.038;6.280;2022-07-29T15:33:39;4.05;;;3.25;;
25153;SDS011;47555;51.038;6.280;2022-07-29T15:36:04;3.42;;;3.13;;
25153;SDS011;47555;51.038;6.280;2022-07-29T15:38:30;3.47;;;3.17;;
25153;SDS011;47555;51.038;6.280;2022-07-29T15:40:56;3.25;;;2.95;;
25153;SDS011;47555;51.038;6.280;2022-07-29T15:43:22;4.35;;;3.38;;
25153;SDS011;47555;51.038;6.280;2022-07-29T15:45:48;3.50;;;3.20;;
25153;SDS011;47555;51.038;6.280;2022-07-29T15:48:32;5.35;;;3.20;;
25153;SDS011;47555;51.038;6.280;2022-07-29T15:50:58;4.50;;;3.33;;
25153;SDS011;47555;51.038;6.280;2022-07-29T15:53:24;3.03;;;2.72;;
25153;SDS011;47555;51.038;6.280;2022-07-29T15:55:50;6.07;;;3.30;;
25153;SDS011;47555;51.038;6.280;2022-07-29T15:58:16;3.20;;;2.90;;
25153;SDS011;47555;51.038;6.280;2022-07-29T16:00:42;4.55;;;3.00;;